Flight Track Log - Related Links

Times and Time Zones

All times are in EDT time to prevent confusion due to time zone crossing. See the SKW5405 flight status page for this flight to view local times or setup timezone preferences in your user account.

Time Position Orientation Groundspeed Altitude Reporting Facility
EDT Latitude Longitude Course Direction KTS MPH feet Rate Location/Type
Sat 08:32:06 PM 33.1167 -117.3500 248° West 179 206 2,800  Level Southern California TRACON
Sat 08:33:06 PM 33.1167 -117.4167 270° West 195 224 4,700 1,950 Climbing Southern California TRACON
Sat 08:34:06 PM 33.1167 -117.4667 270° West 190 219 6,700 1,650 Climbing Southern California TRACON
Sat 08:35:06 PM 33.1500 -117.5333 301° West 196 226 8,000 650 Climbing Southern California TRACON
Sat 08:36:06 PM 33.1833 -117.5833 309° West 219 252 8,000  Level Southern California TRACON
Sat 08:37:06 PM 33.2167 -117.6333 309° West 218 251 8,000  Level Southern California TRACON
Sat 08:37:22 PM 33.2306 -117.6514 313° West 216 249 8,000  Level Los Angeles Center
Sat 08:38:23 PM 33.2731 -117.6997 316° Northwest 213 245 8,000  Level Los Angeles Center
Sat 08:39:25 PM 33.3150 -117.7500 315° West 213 245 8,000  Level Los Angeles Center
Sat 08:40:26 PM 33.3597 -117.8025 316° Northwest 222 255 8,000  Level Los Angeles Center
Sat 08:41:01 PM 33.3833 -117.8333 313° West 228 262 8,000  Level Southern California TRACON
Sat 08:42:01 PM 33.4333 -117.9000 312° West 235 270 8,000  Level Southern California TRACON
Sat 08:42:29 PM 33.4567 -117.9014 357° North 233 268 8,000  Level Los Angeles Center
Sat 08:43:31 PM 33.5197 -117.9269 341° North 243 280 8,000 -439 Level Los Angeles Center
Sat 08:44:32 PM 33.5958 -117.9603 340° North 243 280 7,100 -667 Descending Los Angeles Center
Sat 08:45:01 PM 33.6333 -117.9833 333° Northwest 263 303 7,000 -67 Descending Southern California TRACON
Sat 08:46:01 PM 33.7000 -118.0167 337° Northwest 249 287 7,000  Level Southern California TRACON
Sat 08:47:01 PM 33.7667 -118.0500 337° Northwest 260 299 7,000 -50 Level Southern California TRACON
Sat 08:48:01 PM 33.8333 -118.0667 348° North 264 304 6,900 -550 Descending Southern California TRACON
Sat 08:49:01 PM 33.9000 -118.0833 348° North 246 283 5,900 -1,041 Descending Southern California TRACON
Sat 08:50:02 PM 33.9333 -118.1333 309° West 209 241 4,800 -960 Descending Southern California TRACON
Sat 08:50:41 PM 33.9561 -118.1725 305° West 207 238 4,300 -1,069 Descending Los Angeles Center
Sat 08:51:43 PM 33.9542 -118.2311 268° West 182 209 3,000 -1,161 Descending Los Angeles Center
Sat 08:52:45 PM 33.9475 -118.2858 262° West 175 201 1,900 -878 Descending Los Angeles Center
Sat 08:53:46 PM 33.9433 -118.3275 263° West 148 170 1,200 -683 Descending Los Angeles Center
Sat 08:54:48 PM 33.9403 -118.3656 264° West 128 147 500 -400 Descending Los Angeles Center
Sat 08:56:01 PM 33.9361 -118.4092 263° West 123 142 300 -164 Descending Los Angeles Center
Sat 08:58:00 PM 33.9425 -118.4081 110° East  Level Estimated

Login

Don't have an account? Register now (free) for customized features, flight alerts, and more!